Terminal Aerodrome Forecast
Issued by NWS North Platte, NE

Home | Current Version | Previous Version | Text Only | Print | Product List | Glossary On
Versions: 1 2 3 4 5 6 7 8 9 10 11 12 13 14 15 16 17 18
000
FTUS43 KLBF 301139
TAFLBF
TAF
KLBF 301139Z 3012/0112 02012KT P6SM -RASN OVC025
      TEMPO 3012/3015 5SM -SN BR BKN015
     FM301600 01015G23KT P6SM VCSH OVC015
     FM302000 01015G22KT P6SM -RA OVC012
     FM010100 36011G19KT P6SM OVC012
     FM010600 35010G18KT P6SM OVC008=

USA.gov is the U.S. government's official web portal to all federal, state and local government web resources and services.